createdAt,value
2018-09-05T00:00:41.511Z,8.93
2018-09-05T00:03:09.892Z,9.27
2018-09-05T00:05:38.297Z,8.70
2018-09-05T00:08:06.670Z,9.13
2018-09-05T00:10:40.202Z,8.80
2018-09-05T00:13:08.808Z,9.10
2018-09-05T00:15:37.482Z,9.67
2018-09-05T00:18:06.283Z,9.60
2018-09-05T00:20:34.677Z,8.93
2018-09-05T00:23:03.060Z,9.20
2018-09-05T00:25:31.706Z,10.40
2018-09-05T00:28:00.713Z,11.13
2018-09-05T00:30:29.075Z,10.83
2018-09-05T00:32:57.709Z,10.03
2018-09-05T00:35:26.204Z,10.87
2018-09-05T00:37:54.593Z,9.13
2018-09-05T00:40:22.986Z,9.50
2018-09-05T00:42:51.601Z,10.33
2018-09-05T00:45:20.099Z,9.30
2018-09-05T00:47:48.744Z,9.20
2018-09-05T00:50:17.146Z,9.50
2018-09-05T00:52:45.535Z,10.17
2018-09-05T00:55:13.951Z,10.63
2018-09-05T00:57:42.387Z,10.97
2018-09-05T01:00:10.788Z,10.90
2018-09-05T01:02:39.182Z,11.23
2018-09-05T01:05:07.968Z,11.37
2018-09-05T01:07:36.685Z,11.47
2018-09-05T01:10:05.222Z,11.47
2018-09-05T01:12:33.616Z,9.80
2018-09-05T01:15:02.019Z,10.13
2018-09-05T01:17:30.421Z,10.03
2018-09-05T01:19:59.023Z,10.13
2018-09-05T01:22:27.735Z,10.80
2018-09-05T01:24:56.234Z,12.33
2018-09-05T01:27:24.628Z,14.00
2018-09-05T01:29:53.006Z,11.33
2018-09-05T01:32:21.650Z,15.23
2018-09-05T01:34:50.167Z,16.10
2018-09-05T01:37:18.543Z,15.00
2018-09-05T01:39:46.946Z,13.33
2018-09-05T01:42:15.556Z,14.23
2018-09-05T01:44:44.035Z,14.20
2018-09-05T01:47:12.438Z,12.30
2018-09-05T01:49:40.823Z,12.70
2018-09-05T01:52:09.423Z,12.13
2018-09-05T01:54:37.920Z,12.93
2018-09-05T01:57:06.314Z,12.50
2018-09-05T01:59:34.682Z,18.27
2018-09-05T02:02:03.309Z,18.13
2018-09-05T02:04:31.782Z,18.33
2018-09-05T02:07:00.181Z,20.33
2018-09-05T02:09:28.578Z,19.63
2018-09-05T02:11:57.119Z,19.50
2018-09-05T02:14:25.908Z,17.47
2018-09-05T02:16:54.497Z,17.03
2018-09-05T02:19:23.140Z,15.90
2018-09-05T02:21:56.900Z,15.90
2018-09-05T02:24:25.448Z,17.23
2018-09-05T02:26:54.280Z,14.80
2018-09-05T02:29:22.717Z,15.23
2018-09-05T02:31:57.637Z,13.60
2018-09-05T02:34:26.357Z,13.53
2018-09-05T02:36:54.827Z,13.87
2018-09-05T02:39:23.267Z,12.87
2018-09-05T02:41:52.858Z,11.27
2018-09-05T02:44:22.372Z,10.67
2018-09-05T02:46:51.446Z,12.20
2018-09-05T02:49:19.870Z,12.97
2018-09-05T02:51:48.392Z,13.57
2018-09-05T02:54:17.888Z,10.67
2018-09-05T02:56:46.300Z,12.30
2018-09-05T02:59:14.746Z,12.73
2018-09-05T03:01:43.297Z,11.63
2018-09-05T03:04:11.850Z,12.93
2018-09-05T03:06:40.267Z,13.27
2018-09-05T03:09:08.836Z,14.33
2018-09-05T03:11:37.276Z,13.20
2018-09-05T03:14:05.716Z,14.17
2018-09-05T03:16:34.114Z,13.87
2018-09-05T03:19:04.110Z,14.57
2018-09-05T03:21:31.157Z,13.70
2018-09-05T03:23:59.539Z,14.70
2018-09-05T03:26:27.993Z,11.77
2018-09-05T03:28:56.373Z,13.17
2018-09-05T03:31:24.756Z,13.60
2018-09-05T03:33:53.174Z,11.50
2018-09-05T03:36:21.826Z,10.57
2018-09-05T03:38:50.427Z,13.07
2018-09-05T03:41:18.827Z,12.37
2018-09-05T03:43:47.207Z,12.70
2018-09-05T03:46:15.603Z,11.47
2018-09-05T03:48:44.023Z,11.33
2018-09-05T03:51:12.422Z,12.03
2018-09-05T03:53:40.813Z,12.23
2018-09-05T03:56:09.215Z,10.90
2018-09-05T03:58:37.603Z,12.27
2018-09-05T04:01:06.054Z,12.70
2018-09-05T04:03:34.462Z,11.40
2018-09-05T04:06:02.843Z,11.87
2018-09-05T04:08:31.242Z,13.67
2018-09-05T04:10:59.875Z,13.60
2018-09-05T04:13:28.359Z,14.30
2018-09-05T04:15:56.758Z,11.83
2018-09-05T04:18:25.175Z,12.20
2018-09-05T04:20:53.799Z,13.30
2018-09-05T04:23:22.279Z,11.83
2018-09-05T04:25:50.728Z,14.58
2018-09-05T04:28:19.122Z,14.53
2018-09-05T04:30:47.524Z,16.10
2018-09-05T04:33:16.155Z,14.80
2018-09-05T04:35:44.903Z,14.30
2018-09-05T04:38:13.623Z,14.83
2018-09-05T04:40:42.154Z,16.63
2018-09-05T04:43:10.568Z,15.33
2018-09-05T04:45:39.014Z,16.47
2018-09-05T04:48:07.426Z,17.30
2018-09-05T04:50:35.835Z,18.20
2018-09-05T04:53:04.236Z,16.57
2018-09-05T04:55:32.651Z,15.63
2018-09-05T05:00:44.036Z,16.83
2018-09-05T05:03:12.431Z,17.03
2018-09-05T05:05:41.107Z,17.37
2018-09-05T05:08:09.799Z,15.23
2018-09-05T05:10:38.255Z,16.13
2018-09-05T05:13:06.883Z,16.37
2018-09-05T05:15:35.620Z,16.30
2018-09-05T05:18:04.108Z,15.47
2018-09-05T05:20:32.515Z,16.07
2018-09-05T05:23:00.936Z,16.03
2018-09-05T05:25:29.555Z,18.00
2018-09-05T05:27:58.035Z,16.47
2018-09-05T05:30:26.658Z,18.53
2018-09-05T05:32:55.027Z,18.60
2018-09-05T05:35:23.625Z,16.93
2018-09-05T05:37:52.139Z,11.37
2018-09-05T05:40:25.552Z,13.20
2018-09-05T05:42:54.000Z,13.90
2018-09-05T05:45:22.396Z,18.60
2018-09-05T05:47:50.782Z,15.30
2018-09-05T05:50:19.195Z,13.97
2018-09-05T05:52:47.836Z,15.43
2018-09-05T05:55:16.335Z,18.00
2018-09-05T05:57:44.981Z,17.27
2018-09-05T06:00:13.698Z,17.80
2018-09-05T06:02:42.182Z,17.90
2018-09-05T06:05:10.611Z,21.33
2018-09-05T06:07:39.256Z,22.53
2018-09-05T06:10:07.988Z,21.70
2018-09-05T06:12:36.512Z,20.57
2018-09-05T06:15:05.155Z,20.10
2018-09-05T06:17:33.918Z,17.77
2018-09-05T06:20:02.443Z,18.43
2018-09-05T06:22:31.142Z,18.13
2018-09-05T06:24:59.853Z,18.73
2018-09-05T06:27:28.572Z,19.20
2018-09-05T06:29:57.012Z,19.47
2018-09-05T06:32:25.673Z,20.10
2018-09-05T06:34:54.218Z,19.23
2018-09-05T06:37:24.712Z,20.37
2018-09-05T06:39:54.124Z,22.17
2018-09-05T06:42:22.708Z,22.80
2018-09-05T06:44:51.378Z,22.63
2018-09-05T06:47:20.074Z,25.67
2018-09-05T06:49:48.609Z,23.20
2018-09-05T06:52:17.367Z,22.83
2018-09-05T06:54:46.095Z,21.10
2018-09-05T06:57:14.904Z,20.93
2018-09-05T06:59:43.324Z,21.37
2018-09-05T07:02:11.789Z,21.97
2018-09-05T07:04:40.204Z,22.37
2018-09-05T07:07:08.617Z,22.60
2018-09-05T07:09:37.027Z,22.73
2018-09-05T07:12:05.576Z,20.63
2018-09-05T07:14:34.217Z,20.80
2018-09-05T07:17:02.700Z,20.63
2018-09-05T07:19:31.123Z,23.07
2018-09-05T07:21:59.814Z,22.63
2018-09-05T07:24:28.260Z,22.50
2018-09-05T07:26:56.804Z,21.83
2018-09-05T07:29:25.468Z,20.73
2018-09-05T07:31:54.020Z,18.43
2018-09-05T07:34:22.440Z,17.93
2018-09-05T07:36:51.057Z,14.40
2018-09-05T07:39:19.560Z,13.13
2018-09-05T07:41:48.000Z,11.60
2018-09-05T07:44:16.391Z,12.37
2018-09-05T07:46:44.833Z,12.37
2018-09-05T07:49:13.460Z,12.67
2018-09-05T07:51:41.983Z,12.63
2018-09-05T07:54:10.389Z,12.70
2018-09-05T07:56:38.815Z,12.53
2018-09-05T07:59:07.449Z,12.87
2018-09-05T08:01:36.139Z,12.77
2018-09-05T08:04:04.888Z,13.07
2018-09-05T08:06:33.313Z,11.87
2018-09-05T08:09:01.695Z,13.70
2018-09-05T08:11:30.667Z,12.50
2018-09-05T08:13:59.408Z,13.07
2018-09-05T08:16:28.139Z,13.73
2018-09-05T08:18:57.114Z,13.07
2018-09-05T08:21:25.533Z,11.90
2018-09-05T08:23:54.176Z,11.97
2018-09-05T08:26:23.004Z,12.63
2018-09-05T08:28:51.717Z,11.93
2018-09-05T08:31:20.219Z,10.97
2018-09-05T08:33:48.868Z,11.73
2018-09-05T08:36:17.695Z,11.87
2018-09-05T08:38:46.021Z,8.27
2018-09-05T08:41:14.913Z,9.87
2018-09-05T08:43:43.630Z,9.10
2018-09-05T08:46:12.051Z,9.60
2018-09-05T08:48:40.736Z,9.67
2018-09-05T08:51:40.565Z,10.60
2018-09-05T08:54:09.542Z,9.97
2018-09-05T08:56:38.336Z,10.30
2018-09-05T08:59:06.998Z,8.90
2018-09-05T09:01:36.120Z,9.37
2018-09-05T09:04:04.509Z,9.40
2018-09-05T09:06:32.907Z,10.80
2018-09-05T09:09:01.333Z,9.90
2018-09-05T09:12:32.375Z,10.67
2018-09-05T09:15:00.795Z,10.57
2018-09-05T09:17:29.187Z,10.00
2018-09-05T09:19:57.585Z,8.53
2018-09-05T09:22:25.988Z,9.17
2018-09-05T09:24:54.383Z,9.20
2018-09-05T09:27:22.781Z,8.93
2018-09-05T09:29:51.459Z,9.00
2018-09-05T09:32:20.351Z,8.27
2018-09-05T09:34:48.755Z,8.93
2018-09-05T09:37:17.195Z,9.07
2018-09-05T09:39:45.583Z,8.67
2018-09-05T09:42:13.983Z,8.80
2018-09-05T09:44:42.395Z,8.43
2018-09-05T09:47:10.790Z,7.90
2018-09-05T09:49:39.190Z,7.67
2018-09-05T09:52:13.136Z,6.40
2018-09-05T09:54:41.533Z,6.17
2018-09-05T09:57:09.935Z,6.93
2018-09-05T09:59:38.350Z,7.43
2018-09-05T10:02:12.375Z,6.47
2018-09-05T10:04:46.308Z,6.97
2018-09-05T10:07:20.355Z,6.77
2018-09-05T10:12:00.223Z,6.63
2018-09-05T10:14:31.683Z,7.10
2018-09-05T10:19:07.831Z,5.80
2018-09-05T10:21:36.235Z,6.07
2018-09-05T10:24:04.652Z,5.80
2018-09-05T10:26:33.059Z,5.47
2018-09-05T10:29:01.458Z,5.55
2018-09-05T10:31:29.871Z,5.30
2018-09-05T10:33:58.292Z,4.55
2018-09-05T10:36:26.687Z,4.33
2018-09-05T10:38:55.096Z,4.67
2018-09-05T10:41:28.564Z,4.72
2018-09-05T10:43:57.015Z,4.97
2018-09-05T10:46:25.425Z,5.70
2018-09-05T10:48:54.071Z,4.75
2018-09-05T10:51:28.823Z,5.33
2018-09-05T10:53:57.262Z,5.58
2018-09-05T10:56:25.664Z,4.65
2018-09-05T10:58:54.287Z,4.95
2018-09-05T11:01:22.876Z,5.20
2018-09-05T11:03:51.292Z,5.25
2018-09-05T11:06:19.714Z,5.12
2018-09-05T11:08:48.144Z,5.28
2018-09-05T11:11:16.544Z,5.12
2018-09-05T11:13:44.943Z,5.37
2018-09-05T11:16:13.608Z,4.93
2018-09-05T11:18:42.306Z,4.93
2018-09-05T11:21:10.824Z,5.30
2018-09-05T11:23:39.434Z,4.67
2018-09-05T11:26:08.141Z,4.87
2018-09-05T11:28:36.624Z,5.30
2018-09-05T11:31:05.305Z,4.30
2018-09-05T11:33:33.690Z,4.47
2018-09-05T11:36:02.088Z,4.50
2018-09-05T11:38:30.752Z,4.60
2018-09-05T11:40:59.380Z,4.35
2018-09-05T11:43:28.092Z,4.15
2018-09-05T11:45:56.876Z,4.37
2018-09-05T11:48:25.503Z,4.37
2018-09-05T11:50:54.232Z,4.03
2018-09-05T11:53:23.024Z,4.28
2018-09-05T11:55:51.636Z,4.08
2018-09-05T11:58:20.124Z,3.90
2018-09-05T12:00:48.557Z,4.17
2018-09-05T12:03:17.226Z,3.87
2018-09-05T12:05:46.003Z,4.00
2018-09-05T12:08:14.515Z,4.53
2018-09-05T12:10:43.302Z,4.30
2018-09-05T12:13:12.171Z,4.00
2018-09-05T12:15:40.667Z,4.30
2018-09-05T12:18:09.071Z,4.20
2018-09-05T12:20:37.488Z,4.45
2018-09-05T12:23:06.596Z,3.75
2018-09-05T12:25:35.035Z,3.58
2018-09-05T12:28:03.447Z,3.75
2018-09-05T12:30:32.087Z,4.10
2018-09-05T12:33:00.580Z,3.60
2018-09-05T12:35:29.009Z,3.45
2018-09-05T12:37:57.444Z,3.90
2018-09-05T12:40:25.835Z,4.10
2018-09-05T12:42:54.476Z,3.85
2018-09-05T12:45:23.229Z,3.85
2018-09-05T12:47:51.944Z,7.33
2018-09-05T12:50:20.908Z,4.20
2018-09-05T12:52:49.419Z,3.50
2018-09-05T12:55:18.068Z,3.65
2018-09-05T12:57:46.568Z,3.50
2018-09-05T13:00:15.009Z,3.60
2018-09-05T13:02:43.439Z,12.30
2018-09-05T13:05:12.086Z,3.45
2018-09-05T13:07:40.563Z,3.62
2018-09-05T13:10:09.039Z,3.60
2018-09-05T13:12:37.986Z,3.72
2018-09-05T13:15:06.422Z,2.95
2018-09-05T13:17:34.823Z,3.62
2018-09-05T13:20:03.482Z,3.90
2018-09-05T13:22:32.003Z,3.60
2018-09-05T13:25:00.391Z,3.98
2018-09-05T13:27:28.784Z,3.35
2018-09-05T13:29:57.199Z,3.67
2018-09-05T13:32:25.829Z,3.20
2018-09-05T13:34:54.325Z,3.27
2018-09-05T13:37:22.732Z,3.40
2018-09-05T13:39:51.130Z,3.27
2018-09-05T13:42:19.772Z,3.35
2018-09-05T13:44:48.494Z,3.15
2018-09-05T13:47:17.225Z,3.30
2018-09-05T13:49:45.950Z,3.08
2018-09-05T13:52:17.356Z,3.08
2018-09-05T13:54:45.756Z,3.45
2018-09-05T13:57:14.166Z,4.03
2018-09-05T13:59:42.843Z,3.95
2018-09-05T14:02:11.461Z,4.00
2018-09-05T14:04:40.156Z,4.10
2018-09-05T14:07:08.663Z,4.40
2018-09-05T14:09:37.082Z,9.75
2018-09-05T14:12:05.556Z,5.10
2018-09-05T14:14:34.222Z,4.65
2018-09-05T14:17:02.729Z,5.33
2018-09-05T14:19:31.390Z,5.42
2018-09-05T14:21:59.922Z,5.40
2018-09-05T14:24:28.310Z,5.17
2018-09-05T14:26:56.703Z,5.07
2018-09-05T14:29:25.337Z,5.40
2018-09-05T14:31:54.047Z,4.57
2018-09-05T14:34:22.520Z,5.20
2018-09-05T14:36:50.951Z,4.90
2018-09-05T14:39:19.365Z,5.60
2018-09-05T14:41:47.991Z,5.23
2018-09-05T14:44:16.796Z,4.83
2018-09-05T14:46:45.295Z,6.03
2018-09-05T14:49:13.933Z,5.60
2018-09-05T14:51:42.564Z,5.00
2018-09-05T14:54:10.967Z,5.03
2018-09-05T14:56:39.356Z,9.17
2018-09-05T14:59:08.028Z,5.50
2018-09-05T15:01:36.520Z,4.93
2018-09-05T15:04:04.909Z,5.27
2018-09-05T15:06:33.603Z,5.00
2018-09-05T15:09:02.028Z,5.47
2018-09-05T15:11:30.474Z,4.77
2018-09-05T15:13:58.904Z,5.17
2018-09-05T15:16:27.306Z,5.13
2018-09-05T15:18:55.704Z,5.60
2018-09-05T15:21:24.217Z,5.07
2018-09-05T15:23:52.608Z,5.53
2018-09-05T15:26:21.002Z,5.47
2018-09-05T15:28:49.478Z,5.97
2018-09-05T15:31:17.802Z,5.70
2018-09-05T15:33:46.238Z,6.43
2018-09-05T15:36:14.647Z,5.70
2018-09-05T15:38:43.052Z,5.83
2018-09-05T15:41:11.456Z,5.67
2018-09-05T15:43:39.868Z,5.37
2018-09-05T15:46:08.299Z,5.40
2018-09-05T15:48:36.696Z,5.30
2018-09-05T15:51:05.116Z,5.50
2018-09-05T15:53:33.514Z,5.30
2018-09-05T15:56:02.019Z,4.80
2018-09-05T15:58:30.712Z,5.73
2018-09-05T16:00:59.360Z,4.70
2018-09-05T16:03:27.822Z,4.63
2018-09-05T16:05:56.213Z,5.90
2018-09-05T16:08:24.595Z,4.60
2018-09-05T16:10:53.011Z,5.00
2018-09-05T16:13:21.438Z,4.80
2018-09-05T16:15:49.893Z,4.77
2018-09-05T16:18:18.306Z,4.87
2018-09-05T16:20:46.735Z,5.07
2018-09-05T16:23:15.346Z,4.40
2018-09-05T16:25:43.797Z,5.10
2018-09-05T16:28:12.518Z,5.03
2018-09-05T16:30:41.044Z,4.73
2018-09-05T16:33:09.493Z,5.00
2018-09-05T16:35:38.035Z,4.87
2018-09-05T16:38:06.449Z,4.97
2018-09-05T16:40:34.879Z,4.30
2018-09-05T16:43:03.409Z,4.50
2018-09-05T16:45:31.859Z,4.47
2018-09-05T16:48:00.316Z,4.10
2018-09-05T16:50:28.972Z,4.57
2018-09-05T16:52:57.456Z,4.00
2018-09-05T16:55:26.218Z,4.23
2018-09-05T16:57:54.806Z,4.27
2018-09-05T17:00:23.580Z,4.30
2018-09-05T17:02:52.142Z,4.27
2018-09-05T17:05:20.596Z,4.20
2018-09-05T17:07:49.101Z,4.53
2018-09-05T17:10:17.705Z,4.20
2018-09-05T17:12:46.167Z,4.47
2018-09-05T17:15:14.645Z,4.20
2018-09-05T17:17:43.121Z,4.97
2018-09-05T17:20:11.617Z,4.23
2018-09-05T17:22:40.251Z,4.03
2018-09-05T17:25:08.732Z,9.13
2018-09-05T17:27:37.372Z,4.10
2018-09-05T17:30:05.862Z,4.83
2018-09-05T17:32:34.265Z,4.57
2018-09-05T17:35:02.716Z,4.33
2018-09-05T17:37:31.068Z,4.17
2018-09-05T17:39:59.511Z,4.17
2018-09-05T17:42:27.920Z,3.83
2018-09-05T17:44:57.042Z,4.03
2018-09-05T17:47:25.497Z,4.03
2018-09-05T17:49:53.921Z,4.17
2018-09-05T17:52:22.359Z,4.40
2018-09-05T17:54:50.775Z,4.20
2018-09-05T17:57:19.187Z,4.13
2018-09-05T17:59:47.812Z,4.60
2018-09-05T18:02:16.616Z,4.27
2018-09-05T18:04:45.143Z,4.13
2018-09-05T18:07:13.773Z,4.43
2018-09-05T18:09:42.250Z,4.43
2018-09-05T18:12:15.644Z,4.20
2018-09-05T18:14:44.023Z,4.50
2018-09-05T18:17:12.415Z,4.40
2018-09-05T18:19:40.811Z,4.10
2018-09-05T18:22:14.416Z,4.67
2018-09-05T18:24:42.903Z,4.50
2018-09-05T18:27:11.287Z,4.33
2018-09-05T18:29:39.692Z,4.57
2018-09-05T18:32:13.320Z,3.90
2018-09-05T18:34:41.854Z,4.53
2018-09-05T18:37:10.244Z,4.80
2018-09-05T18:39:38.926Z,4.77
2018-09-05T18:42:07.363Z,5.22
2018-09-05T18:44:35.988Z,4.50
2018-09-05T18:47:04.499Z,4.30
2018-09-05T18:49:32.863Z,4.73
2018-09-05T18:52:01.285Z,4.80
2018-09-05T18:54:29.932Z,4.93
2018-09-05T18:56:58.617Z,5.53
2018-09-05T18:59:27.094Z,4.60
2018-09-05T19:01:55.524Z,5.00
2018-09-05T19:04:23.910Z,4.97
2018-09-05T19:06:52.519Z,5.33
2018-09-05T19:09:21.023Z,4.87
2018-09-05T19:11:49.404Z,5.00
2018-09-05T19:14:20.062Z,5.00
2018-09-05T19:16:48.383Z,5.20
2018-09-05T19:19:16.743Z,5.43
2018-09-05T19:21:50.216Z,4.80
2018-09-05T19:24:18.594Z,4.80
2018-09-05T19:26:47.099Z,4.70
2018-09-05T19:29:15.544Z,4.83
2018-09-05T19:31:43.880Z,5.00
2018-09-05T19:34:12.509Z,4.67
2018-09-05T19:36:41.016Z,4.70
2018-09-05T19:39:10.050Z,4.57
2018-09-05T19:41:38.667Z,5.20
2018-09-05T19:44:07.382Z,5.00
2018-09-05T19:46:36.471Z,4.97
2018-09-05T19:49:04.860Z,4.67
2018-09-05T19:51:33.542Z,4.80
2018-09-05T19:54:02.234Z,5.00
2018-09-05T19:56:30.728Z,5.33
2018-09-05T19:58:59.240Z,4.80
2018-09-05T20:01:32.861Z,4.90
2018-09-05T20:04:01.285Z,5.00
2018-09-05T20:06:29.913Z,5.13
2018-09-05T20:08:58.635Z,5.37
2018-09-05T20:11:27.206Z,4.97
2018-09-05T20:13:55.762Z,4.80
2018-09-05T20:16:24.111Z,5.17
2018-09-05T20:18:52.736Z,5.70
2018-09-05T20:21:21.196Z,5.60
2018-09-05T20:23:49.584Z,6.37
2018-09-05T20:26:17.975Z,6.17
2018-09-05T20:28:46.364Z,6.30
2018-09-05T20:31:14.745Z,5.50
2018-09-05T20:33:43.159Z,5.70
2018-09-05T20:36:11.536Z,5.70
2018-09-05T20:38:39.910Z,5.10
2018-09-05T20:41:08.359Z,5.10
2018-09-05T20:43:36.794Z,5.63
2018-09-05T20:46:05.159Z,5.63
2018-09-05T20:48:33.821Z,6.07
2018-09-05T20:51:02.226Z,5.60
2018-09-05T20:53:30.599Z,6.67
2018-09-05T20:55:59.020Z,6.30
2018-09-05T20:58:27.431Z,6.50
2018-09-05T21:00:55.930Z,6.70
2018-09-05T21:03:24.659Z,6.37
2018-09-05T21:05:53.039Z,5.83
2018-09-05T21:08:21.426Z,6.67
2018-09-05T21:10:49.891Z,7.13
2018-09-05T21:13:18.266Z,6.77
2018-09-05T21:15:46.659Z,6.27
2018-09-05T21:18:15.086Z,6.50
2018-09-05T21:20:43.464Z,6.60
2018-09-05T21:23:11.842Z,6.50
2018-09-05T21:25:40.247Z,6.20
2018-09-05T21:28:08.739Z,6.30
2018-09-05T21:30:37.107Z,6.77
2018-09-05T21:33:05.515Z,7.07
2018-09-05T21:35:33.964Z,7.73
2018-09-05T21:38:02.354Z,6.83
2018-09-05T21:40:30.766Z,7.07
2018-09-05T21:42:59.155Z,6.97
2018-09-05T21:45:27.567Z,6.70
2018-09-05T21:47:55.977Z,7.17
2018-09-05T21:50:24.348Z,6.50
2018-09-05T21:52:52.748Z,6.30
2018-09-05T21:55:21.126Z,6.20
2018-09-05T21:57:49.737Z,6.20
2018-09-05T22:00:18.480Z,6.57
2018-09-05T22:02:46.966Z,6.27
2018-09-05T22:05:15.411Z,6.50
2018-09-05T22:07:43.807Z,6.10
2018-09-05T22:10:12.487Z,6.77
2018-09-05T22:12:40.976Z,5.97
2018-09-05T22:15:09.358Z,6.60
2018-09-05T22:17:38.218Z,6.60
2018-09-05T22:20:06.603Z,7.67
2018-09-05T22:22:34.985Z,7.03
2018-09-05T22:25:03.608Z,7.20
2018-09-05T22:27:32.319Z,6.87
2018-09-05T22:30:00.789Z,5.97
2018-09-05T22:32:29.255Z,6.27
2018-09-05T22:34:57.631Z,6.37
2018-09-05T22:37:26.215Z,5.70
2018-09-05T22:39:54.698Z,6.77
2018-09-05T22:42:23.190Z,6.47
2018-09-05T22:44:57.176Z,6.33
2018-09-05T22:47:30.999Z,5.70
2018-09-05T22:50:10.532Z,6.30
2018-09-05T22:54:55.923Z,6.27
2018-09-05T22:57:38.755Z,6.23
2018-09-05T23:02:16.686Z,6.47
2018-09-05T23:05:54.332Z,5.83
2018-09-05T23:08:28.392Z,6.03
2018-09-05T23:11:02.276Z,5.57
2018-09-05T23:13:36.416Z,5.53
2018-09-05T23:18:17.243Z,6.17
2018-09-05T23:20:52.900Z,5.50
2018-09-05T23:23:26.986Z,6.10
2018-09-05T23:25:55.363Z,5.77
2018-09-05T23:28:23.751Z,5.83
2018-09-05T23:30:52.145Z,5.90
2018-09-05T23:33:20.549Z,5.40
2018-09-05T23:35:48.932Z,6.97
2018-09-05T23:38:17.347Z,5.93
2018-09-05T23:40:50.947Z,6.33
2018-09-05T23:43:19.448Z,5.43
2018-09-05T23:45:47.822Z,6.17
2018-09-05T23:48:16.207Z,6.30
2018-09-05T23:50:44.781Z,5.53
2018-09-05T23:53:13.155Z,6.33
2018-09-05T23:55:41.531Z,6.70
2018-09-05T23:58:09.932Z,6.30
